sensor_id;sensor_type;location;lat;lon;timestamp;temperature;humidity
13148;DHT22;6639;50.956;4.242;2023-04-15T00:00:35;19.50;97.50
13148;DHT22;6639;50.956;4.242;2023-04-15T00:03:03;19.50;97.30
13148;DHT22;6639;50.956;4.242;2023-04-15T00:05:30;19.40;97.20
13148;DHT22;6639;50.956;4.242;2023-04-15T00:07:57;19.40;97.20
13148;DHT22;6639;50.956;4.242;2023-04-15T00:10:26;19.20;97.20
13148;DHT22;6639;50.956;4.242;2023-04-15T00:12:53;18.90;97.30
13148;DHT22;6639;50.956;4.242;2023-04-15T00:15:20;18.50;97.80
13148;DHT22;6639;50.956;4.242;2023-04-15T00:17:49;17.90;98.70
13148;DHT22;6639;50.956;4.242;2023-04-15T00:20:16;18.00;99.20
13148;DHT22;6639;50.956;4.242;2023-04-15T00:22:43;18.20;99.10
13148;DHT22;6639;50.956;4.242;2023-04-15T00:25:10;18.50;99.00
13148;DHT22;6639;50.956;4.242;2023-04-15T00:27:39;18.60;98.80
13148;DHT22;6639;50.956;4.242;2023-04-15T00:30:07;18.70;98.60
13148;DHT22;6639;50.956;4.242;2023-04-15T00:32:34;18.90;98.70
13148;DHT22;6639;50.956;4.242;2023-04-15T00:35:01;19.00;98.60
13148;DHT22;6639;50.956;4.242;2023-04-15T00:37:29;19.20;98.60
13148;DHT22;6639;50.956;4.242;2023-04-15T00:39:56;19.10;98.70
13148;DHT22;6639;50.956;4.242;2023-04-15T00:42:24;19.20;99.00
13148;DHT22;6639;50.956;4.242;2023-04-15T00:44:52;19.10;99.00
13148;DHT22;6639;50.956;4.242;2023-04-15T00:47:20;19.20;99.00
13148;DHT22;6639;50.956;4.242;2023-04-15T00:49:47;19.00;99.30
13148;DHT22;6639;50.956;4.242;2023-04-15T00:52:14;18.40;98.90
13148;DHT22;6639;50.956;4.242;2023-04-15T00:54:41;18.20;99.70
13148;DHT22;6639;50.956;4.242;2023-04-15T00:57:08;18.40;99.80
13148;DHT22;6639;50.956;4.242;2023-04-15T00:59:35;18.50;99.70
13148;DHT22;6639;50.956;4.242;2023-04-15T01:02:03;18.40;99.80
13148;DHT22;6639;50.956;4.242;2023-04-15T01:04:31;18.20;99.90
13148;DHT22;6639;50.956;4.242;2023-04-15T01:06:58;18.10;99.90
13148;DHT22;6639;50.956;4.242;2023-04-15T01:09:26;18.30;99.90
13148;DHT22;6639;50.956;4.242;2023-04-15T01:11:52;18.40;99.90
13148;DHT22;6639;50.956;4.242;2023-04-15T01:14:20;18.10;99.90
13148;DHT22;6639;50.956;4.242;2023-04-15T01:16:47;17.80;99.90
13148;DHT22;6639;50.956;4.242;2023-04-15T01:19:16;17.30;99.90
13148;DHT22;6639;50.956;4.242;2023-04-15T01:21:43;17.40;99.90
13148;DHT22;6639;50.956;4.242;2023-04-15T01:24:10;17.70;99.90
13148;DHT22;6639;50.956;4.242;2023-04-15T01:26:40;17.80;99.90
13148;DHT22;6639;50.956;4.242;2023-04-15T01:29:07;18.10;99.90
13148;DHT22;6639;50.956;4.242;2023-04-15T01:31:34;18.40;99.90
13148;DHT22;6639;50.956;4.242;2023-04-15T01:34:02;18.30;99.90
13148;DHT22;6639;50.956;4.242;2023-04-15T01:36:29;18.00;99.90
13148;DHT22;6639;50.956;4.242;2023-04-15T01:38:57;18.10;99.90
13148;DHT22;6639;50.956;4.242;2023-04-15T01:41:24;18.20;99.90
13148;DHT22;6639;50.956;4.242;2023-04-15T01:43:54;18.50;99.90
13148;DHT22;6639;50.956;4.242;2023-04-15T01:46:21;18.50;99.90
13148;DHT22;6639;50.956;4.242;2023-04-15T01:48:48;18.40;99.90
13148;DHT22;6639;50.956;4.242;2023-04-15T01:51:15;18.50;99.90
13148;DHT22;6639;50.956;4.242;2023-04-15T01:53:42;18.30;99.90
13148;DHT22;6639;50.956;4.242;2023-04-15T01:56:09;18.40;99.90
13148;DHT22;6639;50.956;4.242;2023-04-15T01:58:36;18.60;99.90
13148;DHT22;6639;50.956;4.242;2023-04-15T02:01:04;18.80;99.90
13148;DHT22;6639;50.956;4.242;2023-04-15T02:03:31;18.90;99.90
13148;DHT22;6639;50.956;4.242;2023-04-15T02:05:58;18.90;99.90
13148;DHT22;6639;50.956;4.242;2023-04-15T02:08:25;18.80;99.90
13148;DHT22;6639;50.956;4.242;2023-04-15T02:10:53;18.70;99.90
13148;DHT22;6639;50.956;4.242;2023-04-15T02:13:20;18.90;99.90
13148;DHT22;6639;50.956;4.242;2023-04-15T02:15:47;19.00;99.90
13148;DHT22;6639;50.956;4.242;2023-04-15T02:18:15;19.10;99.90
13148;DHT22;6639;50.956;4.242;2023-04-15T02:20:42;19.20;99.90
13148;DHT22;6639;50.956;4.242;2023-04-15T02:23:10;19.10;99.90
13148;DHT22;6639;50.956;4.242;2023-04-15T02:25:37;19.00;99.90
13148;DHT22;6639;50.956;4.242;2023-04-15T02:28:04;19.00;99.90
13148;DHT22;6639;50.956;4.242;2023-04-15T02:30:31;19.00;99.90
13148;DHT22;6639;50.956;4.242;2023-04-15T02:32:59;18.70;99.90
13148;DHT22;6639;50.956;4.242;2023-04-15T02:35:27;18.70;99.90
13148;DHT22;6639;50.956;4.242;2023-04-15T02:37:54;18.90;99.90
13148;DHT22;6639;50.956;4.242;2023-04-15T02:40:21;19.00;99.90
13148;DHT22;6639;50.956;4.242;2023-04-15T02:42:48;19.00;99.90
13148;DHT22;6639;50.956;4.242;2023-04-15T02:45:15;19.00;99.90
13148;DHT22;6639;50.956;4.242;2023-04-15T02:47:44;18.90;99.90
13148;DHT22;6639;50.956;4.242;2023-04-15T02:50:12;18.80;99.90
13148;DHT22;6639;50.956;4.242;2023-04-15T02:52:42;18.60;99.90
13148;DHT22;6639;50.956;4.242;2023-04-15T02:55:09;18.40;99.90
13148;DHT22;6639;50.956;4.242;2023-04-15T02:57:37;18.50;99.90
13148;DHT22;6639;50.956;4.242;2023-04-15T03:00:06;18.50;99.90
13148;DHT22;6639;50.956;4.242;2023-04-15T03:02:35;18.50;99.90
13148;DHT22;6639;50.956;4.242;2023-04-15T03:05:02;18.50;99.90
13148;DHT22;6639;50.956;4.242;2023-04-15T03:07:30;18.40;99.90
13148;DHT22;6639;50.956;4.242;2023-04-15T03:09:58;18.40;99.90
13148;DHT22;6639;50.956;4.242;2023-04-15T03:12:25;18.50;99.90
13148;DHT22;6639;50.956;4.242;2023-04-15T03:14:53;18.50;99.90
13148;DHT22;6639;50.956;4.242;2023-04-15T03:17:19;18.50;99.90
13148;DHT22;6639;50.956;4.242;2023-04-15T03:19:46;18.50;99.90
13148;DHT22;6639;50.956;4.242;2023-04-15T03:22:13;18.20;99.90
13148;DHT22;6639;50.956;4.242;2023-04-15T03:24:40;17.80;99.90
13148;DHT22;6639;50.956;4.242;2023-04-15T03:27:08;17.30;99.90
13148;DHT22;6639;50.956;4.242;2023-04-15T03:29:35;17.70;99.90
13148;DHT22;6639;50.956;4.242;2023-04-15T03:32:02;17.80;99.90
13148;DHT22;6639;50.956;4.242;2023-04-15T03:34:29;18.10;99.90
13148;DHT22;6639;50.956;4.242;2023-04-15T03:36:56;18.40;99.90
13148;DHT22;6639;50.956;4.242;2023-04-15T03:39:23;18.50;99.90
13148;DHT22;6639;50.956;4.242;2023-04-15T03:41:50;18.70;99.90
13148;DHT22;6639;50.956;4.242;2023-04-15T03:44:18;18.80;99.90
13148;DHT22;6639;50.956;4.242;2023-04-15T03:46:45;19.00;99.90
13148;DHT22;6639;50.956;4.242;2023-04-15T03:49:13;19.00;99.90
13148;DHT22;6639;50.956;4.242;2023-04-15T03:51:40;18.80;99.90
13148;DHT22;6639;50.956;4.242;2023-04-15T03:54:06;18.50;99.90
13148;DHT22;6639;50.956;4.242;2023-04-15T03:56:33;18.50;99.90
13148;DHT22;6639;50.956;4.242;2023-04-15T03:59:00;18.70;99.90
13148;DHT22;6639;50.956;4.242;2023-04-15T04:01:28;18.70;99.90
13148;DHT22;6639;50.956;4.242;2023-04-15T04:03:55;18.70;99.90
13148;DHT22;6639;50.956;4.242;2023-04-15T04:06:22;18.80;99.90
13148;DHT22;6639;50.956;4.242;2023-04-15T04:08:49;18.80;99.90
13148;DHT22;6639;50.956;4.242;2023-04-15T04:11:16;18.90;99.90
13148;DHT22;6639;50.956;4.242;2023-04-15T04:13:43;18.90;99.90
13148;DHT22;6639;50.956;4.242;2023-04-15T04:16:10;19.00;99.90
13148;DHT22;6639;50.956;4.242;2023-04-15T04:18:38;18.90;99.90
13148;DHT22;6639;50.956;4.242;2023-04-15T04:21:05;18.90;99.90
13148;DHT22;6639;50.956;4.242;2023-04-15T04:23:32;18.60;99.90
13148;DHT22;6639;50.956;4.242;2023-04-15T04:25:59;18.70;99.90
13148;DHT22;6639;50.956;4.242;2023-04-15T04:28:26;18.70;99.90
13148;DHT22;6639;50.956;4.242;2023-04-15T04:30:53;18.70;99.90
13148;DHT22;6639;50.956;4.242;2023-04-15T04:33:20;18.80;99.90
13148;DHT22;6639;50.956;4.242;2023-04-15T04:35:48;18.80;99.90
13148;DHT22;6639;50.956;4.242;2023-04-15T04:38:15;18.80;99.90
13148;DHT22;6639;50.956;4.242;2023-04-15T04:40:42;18.80;99.90
13148;DHT22;6639;50.956;4.242;2023-04-15T04:43:09;18.80;99.90
13148;DHT22;6639;50.956;4.242;2023-04-15T04:45:36;18.70;99.90
13148;DHT22;6639;50.956;4.242;2023-04-15T04:48:03;18.70;99.90
13148;DHT22;6639;50.956;4.242;2023-04-15T04:50:31;18.60;99.90
13148;DHT22;6639;50.956;4.242;2023-04-15T04:53:00;18.30;99.90
13148;DHT22;6639;50.956;4.242;2023-04-15T04:55:27;18.00;99.90
13148;DHT22;6639;50.956;4.242;2023-04-15T04:57:54;18.10;99.90
13148;DHT22;6639;50.956;4.242;2023-04-15T05:00:21;18.10;99.90
13148;DHT22;6639;50.956;4.242;2023-04-15T05:02:48;18.00;99.90
13148;DHT22;6639;50.956;4.242;2023-04-15T05:05:16;17.90;99.90
13148;DHT22;6639;50.956;4.242;2023-04-15T05:07:42;17.90;99.90
13148;DHT22;6639;50.956;4.242;2023-04-15T05:10:11;18.00;99.90
13148;DHT22;6639;50.956;4.242;2023-04-15T05:12:39;18.20;99.90
13148;DHT22;6639;50.956;4.242;2023-04-15T05:15:07;18.40;99.90
13148;DHT22;6639;50.956;4.242;2023-04-15T05:17:34;18.50;99.90
13148;DHT22;6639;50.956;4.242;2023-04-15T05:20:01;18.50;99.90
13148;DHT22;6639;50.956;4.242;2023-04-15T05:22:28;18.60;99.90
13148;DHT22;6639;50.956;4.242;2023-04-15T05:24:55;18.50;99.90
13148;DHT22;6639;50.956;4.242;2023-04-15T05:27:23;18.70;99.90
13148;DHT22;6639;50.956;4.242;2023-04-15T05:29:51;18.70;99.90
13148;DHT22;6639;50.956;4.242;2023-04-15T05:32:17;18.70;99.90
13148;DHT22;6639;50.956;4.242;2023-04-15T05:34:45;18.70;99.90
13148;DHT22;6639;50.956;4.242;2023-04-15T05:37:12;18.60;99.90
13148;DHT22;6639;50.956;4.242;2023-04-15T05:39:39;18.70;99.90
13148;DHT22;6639;50.956;4.242;2023-04-15T05:42:06;18.60;99.90
13148;DHT22;6639;50.956;4.242;2023-04-15T05:44:35;18.30;99.90
13148;DHT22;6639;50.956;4.242;2023-04-15T05:47:01;18.50;99.90
13148;DHT22;6639;50.956;4.242;2023-04-15T05:49:30;18.20;99.90
13148;DHT22;6639;50.956;4.242;2023-04-15T05:51:57;18.20;99.90
13148;DHT22;6639;50.956;4.242;2023-04-15T05:54:24;18.20;99.90
13148;DHT22;6639;50.956;4.242;2023-04-15T05:56:52;17.50;99.90
13148;DHT22;6639;50.956;4.242;2023-04-15T05:59:19;17.20;99.90
13148;DHT22;6639;50.956;4.242;2023-04-15T06:01:47;16.70;99.90
13148;DHT22;6639;50.956;4.242;2023-04-15T06:04:16;16.80;99.90
13148;DHT22;6639;50.956;4.242;2023-04-15T06:06:43;16.70;99.90
13148;DHT22;6639;50.956;4.242;2023-04-15T06:09:10;15.80;99.90
13148;DHT22;6639;50.956;4.242;2023-04-15T06:11:37;16.20;99.90
13148;DHT22;6639;50.956;4.242;2023-04-15T06:14:05;17.00;99.90
13148;DHT22;6639;50.956;4.242;2023-04-15T06:16:32;17.60;99.90
13148;DHT22;6639;50.956;4.242;2023-04-15T06:19:02;17.90;99.90
13148;DHT22;6639;50.956;4.242;2023-04-15T06:21:29;18.10;99.90
13148;DHT22;6639;50.956;4.242;2023-04-15T06:23:57;18.30;99.90
13148;DHT22;6639;50.956;4.242;2023-04-15T06:26:24;18.40;99.90
13148;DHT22;6639;50.956;4.242;2023-04-15T06:28:51;18.50;99.90
13148;DHT22;6639;50.956;4.242;2023-04-15T06:31:18;18.20;99.90
13148;DHT22;6639;50.956;4.242;2023-04-15T06:33:45;16.80;99.90
13148;DHT22;6639;50.956;4.242;2023-04-15T06:36:13;16.30;99.90
13148;DHT22;6639;50.956;4.242;2023-04-15T06:38:40;16.20;99.90
13148;DHT22;6639;50.956;4.242;2023-04-15T06:41:07;15.90;99.90
13148;DHT22;6639;50.956;4.242;2023-04-15T06:43:34;15.90;99.90
13148;DHT22;6639;50.956;4.242;2023-04-15T06:46:02;15.30;99.90
13148;DHT22;6639;50.956;4.242;2023-04-15T06:48:43;15.90;99.90
13148;DHT22;6639;50.956;4.242;2023-04-15T06:51:10;15.80;99.90
13148;DHT22;6639;50.956;4.242;2023-04-15T06:53:38;16.10;99.90
13148;DHT22;6639;50.956;4.242;2023-04-15T06:56:07;15.70;99.90
13148;DHT22;6639;50.956;4.242;2023-04-15T06:58:35;15.60;99.90
13148;DHT22;6639;50.956;4.242;2023-04-15T07:01:02;15.90;99.90
13148;DHT22;6639;50.956;4.242;2023-04-15T07:03:29;16.20;99.90
13148;DHT22;6639;50.956;4.242;2023-04-15T07:05:56;16.60;99.90
13148;DHT22;6639;50.956;4.242;2023-04-15T07:08:23;16.80;99.90
13148;DHT22;6639;50.956;4.242;2023-04-15T07:10:51;16.40;99.90
13148;DHT22;6639;50.956;4.242;2023-04-15T07:13:18;16.00;99.90
13148;DHT22;6639;50.956;4.242;2023-04-15T07:15:45;16.10;99.90
13148;DHT22;6639;50.956;4.242;2023-04-15T07:18:12;16.10;99.90
13148;DHT22;6639;50.956;4.242;2023-04-15T07:20:39;16.20;99.90
13148;DHT22;6639;50.956;4.242;2023-04-15T07:23:06;16.20;99.90
13148;DHT22;6639;50.956;4.242;2023-04-15T07:25:33;16.10;99.90
13148;DHT22;6639;50.956;4.242;2023-04-15T07:28:01;16.70;99.90
13148;DHT22;6639;50.956;4.242;2023-04-15T07:30:28;17.90;99.90
13148;DHT22;6639;50.956;4.242;2023-04-15T07:32:55;18.20;99.90
13148;DHT22;6639;50.956;4.242;2023-04-15T07:35:22;18.20;99.90
13148;DHT22;6639;50.956;4.242;2023-04-15T07:37:50;18.30;99.90
13148;DHT22;6639;50.956;4.242;2023-04-15T07:40:20;18.00;99.90
13148;DHT22;6639;50.956;4.242;2023-04-15T07:42:56;17.40;99.90
13148;DHT22;6639;50.956;4.242;2023-04-15T07:45:26;17.10;99.90
13148;DHT22;6639;50.956;4.242;2023-04-15T07:47:53;17.20;99.90
13148;DHT22;6639;50.956;4.242;2023-04-15T07:50:20;17.40;99.90
13148;DHT22;6639;50.956;4.242;2023-04-15T07:52:48;17.90;99.90
13148;DHT22;6639;50.956;4.242;2023-04-15T07:55:16;18.20;99.90
13148;DHT22;6639;50.956;4.242;2023-04-15T07:57:46;18.50;99.90
13148;DHT22;6639;50.956;4.242;2023-04-15T08:00:14;19.10;99.50
13148;DHT22;6639;50.956;4.242;2023-04-15T08:02:42;19.50;99.30
13148;DHT22;6639;50.956;4.242;2023-04-15T08:05:12;19.10;98.40
13148;DHT22;6639;50.956;4.242;2023-04-15T08:07:44;19.70;98.30
13148;DHT22;6639;50.956;4.242;2023-04-15T08:10:16;19.00;97.00
13148;DHT22;6639;50.956;4.242;2023-04-15T08:12:44;19.50;98.00
13148;DHT22;6639;50.956;4.242;2023-04-15T08:15:13;20.30;98.20
13148;DHT22;6639;50.956;4.242;2023-04-15T08:18:00;20.30;96.70
13148;DHT22;6639;50.956;4.242;2023-04-15T08:20:43;20.30;96.90
13148;DHT22;6639;50.956;4.242;2023-04-15T08:23:10;20.70;95.80
13148;DHT22;6639;50.956;4.242;2023-04-15T08:25:38;21.10;96.10
13148;DHT22;6639;50.956;4.242;2023-04-15T08:28:06;20.90;95.10
13148;DHT22;6639;50.956;4.242;2023-04-15T08:30:34;20.40;95.50
13148;DHT22;6639;50.956;4.242;2023-04-15T08:33:02;20.60;95.60
13148;DHT22;6639;50.956;4.242;2023-04-15T08:35:31;20.50;95.20
13148;DHT22;6639;50.956;4.242;2023-04-15T08:38:11;20.40;95.90
13148;DHT22;6639;50.956;4.242;2023-04-15T08:40:41;20.30;96.10
13148;DHT22;6639;50.956;4.242;2023-04-15T08:43:12;20.20;95.70
13148;DHT22;6639;50.956;4.242;2023-04-15T08:45:41;20.00;96.40
13148;DHT22;6639;50.956;4.242;2023-04-15T08:48:14;19.70;95.80
13148;DHT22;6639;50.956;4.242;2023-04-15T08:50:42;19.90;97.20
13148;DHT22;6639;50.956;4.242;2023-04-15T08:53:10;19.90;96.30
13148;DHT22;6639;50.956;4.242;2023-04-15T08:55:42;19.50;96.30
13148;DHT22;6639;50.956;4.242;2023-04-15T08:58:10;19.30;96.00
13148;DHT22;6639;50.956;4.242;2023-04-15T09:00:51;18.30;97.00
13148;DHT22;6639;50.956;4.242;2023-04-15T09:03:20;18.30;97.10
13148;DHT22;6639;50.956;4.242;2023-04-15T09:05:49;18.60;98.00
13148;DHT22;6639;50.956;4.242;2023-04-15T09:08:16;18.50;97.50
13148;DHT22;6639;50.956;4.242;2023-04-15T09:10:43;18.70;98.40
13148;DHT22;6639;50.956;4.242;2023-04-15T09:13:10;19.00;97.30
13148;DHT22;6639;50.956;4.242;2023-04-15T09:15:38;18.80;96.60
13148;DHT22;6639;50.956;4.242;2023-04-15T09:18:10;19.40;96.90
13148;DHT22;6639;50.956;4.242;2023-04-15T09:20:53;19.40;97.20
13148;DHT22;6639;50.956;4.242;2023-04-15T09:23:20;20.20;97.10
13148;DHT22;6639;50.956;4.242;2023-04-15T09:25:48;20.90;96.30
13148;DHT22;6639;50.956;4.242;2023-04-15T09:28:23;20.70;95.20
13148;DHT22;6639;50.956;4.242;2023-04-15T09:30:54;20.60;95.00
13148;DHT22;6639;50.956;4.242;2023-04-15T09:33:22;20.30;94.00
13148;DHT22;6639;50.956;4.242;2023-04-15T09:35:58;20.50;95.80
13148;DHT22;6639;50.956;4.242;2023-04-15T09:38:25;20.30;93.90
13148;DHT22;6639;50.956;4.242;2023-04-15T09:40:53;20.20;93.90
13148;DHT22;6639;50.956;4.242;2023-04-15T09:43:20;20.40;94.30
13148;DHT22;6639;50.956;4.242;2023-04-15T09:45:49;19.80;92.80
13148;DHT22;6639;50.956;4.242;2023-04-15T09:48:26;19.40;94.20
13148;DHT22;6639;50.956;4.242;2023-04-15T09:51:08;19.70;95.10
13148;DHT22;6639;50.956;4.242;2023-04-15T09:53:36;20.60;95.50
13148;DHT22;6639;50.956;4.242;2023-04-15T09:56:03;20.60;94.50
13148;DHT22;6639;50.956;4.242;2023-04-15T09:58:34;20.90;93.70
13148;DHT22;6639;50.956;4.242;2023-04-15T10:01:04;20.60;93.70
13148;DHT22;6639;50.956;4.242;2023-04-15T10:03:34;20.00;94.10
13148;DHT22;6639;50.956;4.242;2023-04-15T10:06:02;20.20;95.30
13148;DHT22;6639;50.956;4.242;2023-04-15T10:08:33;20.50;92.50
13148;DHT22;6639;50.956;4.242;2023-04-15T10:11:01;20.60;93.50
13148;DHT22;6639;50.956;4.242;2023-04-15T10:13:30;21.30;94.30
13148;DHT22;6639;50.956;4.242;2023-04-15T10:16:05;20.50;93.60
13148;DHT22;6639;50.956;4.242;2023-04-15T10:18:42;20.50;94.10
13148;DHT22;6639;50.956;4.242;2023-04-15T10:21:11;20.40;93.90
13148;DHT22;6639;50.956;4.242;2023-04-15T10:23:40;20.50;93.50
13148;DHT22;6639;50.956;4.242;2023-04-15T10:26:07;21.30;96.00
13148;DHT22;6639;50.956;4.242;2023-04-15T10:28:37;21.00;93.90
13148;DHT22;6639;50.956;4.242;2023-04-15T10:31:05;21.20;94.30
13148;DHT22;6639;50.956;4.242;2023-04-15T10:33:34;21.30;93.00
13148;DHT22;6639;50.956;4.242;2023-04-15T10:36:05;20.90;94.60
13148;DHT22;6639;50.956;4.242;2023-04-15T10:38:39;20.60;91.70
13148;DHT22;6639;50.956;4.242;2023-04-15T10:41:17;20.60;92.40
13148;DHT22;6639;50.956;4.242;2023-04-15T10:43:47;20.30;92.20
13148;DHT22;6639;50.956;4.242;2023-04-15T10:46:21;20.70;91.50
13148;DHT22;6639;50.956;4.242;2023-04-15T10:48:49;20.80;90.10
13148;DHT22;6639;50.956;4.242;2023-04-15T10:51:30;20.00;87.90
13148;DHT22;6639;50.956;4.242;2023-04-15T10:54:00;20.30;91.20
13148;DHT22;6639;50.956;4.242;2023-04-15T10:56:28;20.70;90.60
13148;DHT22;6639;50.956;4.242;2023-04-15T10:59:09;20.90;90.60
13148;DHT22;6639;50.956;4.242;2023-04-15T11:02:05;20.70;91.30
13148;DHT22;6639;50.956;4.242;2023-04-15T11:04:53;20.70;85.90
13148;DHT22;6639;50.956;4.242;2023-04-15T11:07:34;20.40;88.80
13148;DHT22;6639;50.956;4.242;2023-04-15T11:10:03;20.30;87.30
13148;DHT22;6639;50.956;4.242;2023-04-15T11:12:36;21.10;89.00
13148;DHT22;6639;50.956;4.242;2023-04-15T11:15:27;21.30;86.80
13148;DHT22;6639;50.956;4.242;2023-04-15T11:17:55;21.30;88.00
13148;DHT22;6639;50.956;4.242;2023-04-15T11:20:22;21.10;88.90
13148;DHT22;6639;50.956;4.242;2023-04-15T11:22:51;20.80;89.80
13148;DHT22;6639;50.956;4.242;2023-04-15T11:25:23;21.50;89.40
13148;DHT22;6639;50.956;4.242;2023-04-15T11:27:52;21.60;89.30
13148;DHT22;6639;50.956;4.242;2023-04-15T11:30:23;21.60;86.30
13148;DHT22;6639;50.956;4.242;2023-04-15T11:32:51;21.00;87.30
13148;DHT22;6639;50.956;4.242;2023-04-15T11:35:19;20.80;87.00
13148;DHT22;6639;50.956;4.242;2023-04-15T11:37:47;20.90;88.00
13148;DHT22;6639;50.956;4.242;2023-04-15T11:40:15;21.20;86.10
13148;DHT22;6639;50.956;4.242;2023-04-15T11:42:44;21.70;84.30
13148;DHT22;6639;50.956;4.242;2023-04-15T11:45:15;21.80;83.20
13148;DHT22;6639;50.956;4.242;2023-04-15T11:47:42;21.90;84.10
13148;DHT22;6639;50.956;4.242;2023-04-15T11:50:16;22.70;84.20
13148;DHT22;6639;50.956;4.242;2023-04-15T11:52:52;21.80;74.10
13148;DHT22;6639;50.956;4.242;2023-04-15T11:55:19;21.20;75.80
13148;DHT22;6639;50.956;4.242;2023-04-15T11:57:49;20.50;77.00
13148;DHT22;6639;50.956;4.242;2023-04-15T12:00:16;20.70;74.90
13148;DHT22;6639;50.956;4.242;2023-04-15T12:05:18;21.50;79.50
13148;DHT22;6639;50.956;4.242;2023-04-15T12:07:58;21.20;79.60
13148;DHT22;6639;50.956;4.242;2023-04-15T12:10:30;21.30;80.30
13148;DHT22;6639;50.956;4.242;2023-04-15T12:12:59;21.10;80.60
13148;DHT22;6639;50.956;4.242;2023-04-15T12:15:26;21.90;79.20
13148;DHT22;6639;50.956;4.242;2023-04-15T12:17:53;21.50;78.70
13148;DHT22;6639;50.956;4.242;2023-04-15T12:20:24;21.10;79.00
13148;DHT22;6639;50.956;4.242;2023-04-15T12:22:51;20.80;80.00
13148;DHT22;6639;50.956;4.242;2023-04-15T12:25:18;21.10;79.60
13148;DHT22;6639;50.956;4.242;2023-04-15T12:27:50;21.80;79.10
13148;DHT22;6639;50.956;4.242;2023-04-15T12:30:21;21.70;78.20
13148;DHT22;6639;50.956;4.242;2023-04-15T12:32:48;21.30;78.80
13148;DHT22;6639;50.956;4.242;2023-04-15T12:35:17;21.90;79.90
13148;DHT22;6639;50.956;4.242;2023-04-15T12:37:46;21.40;77.20
13148;DHT22;6639;50.956;4.242;2023-04-15T12:40:13;21.60;78.20
13148;DHT22;6639;50.956;4.242;2023-04-15T12:42:40;22.00;76.30
13148;DHT22;6639;50.956;4.242;2023-04-15T12:45:07;21.50;77.80
13148;DHT22;6639;50.956;4.242;2023-04-15T12:47:43;21.30;81.60
13148;DHT22;6639;50.956;4.242;2023-04-15T12:50:22;21.90;80.20
13148;DHT22;6639;50.956;4.242;2023-04-15T12:52:49;21.60;80.90
13148;DHT22;6639;50.956;4.242;2023-04-15T12:55:17;21.60;81.10
13148;DHT22;6639;50.956;4.242;2023-04-15T12:57:44;21.80;82.10
13148;DHT22;6639;50.956;4.242;2023-04-15T13:00:12;21.80;79.00
13148;DHT22;6639;50.956;4.242;2023-04-15T13:02:42;21.70;80.80
13148;DHT22;6639;50.956;4.242;2023-04-15T13:05:09;21.20;80.60
13148;DHT22;6639;50.956;4.242;2023-04-15T13:07:39;21.20;81.40
13148;DHT22;6639;50.956;4.242;2023-04-15T13:10:07;21.30;80.50
13148;DHT22;6639;50.956;4.242;2023-04-15T13:12:34;21.20;81.50
13148;DHT22;6639;50.956;4.242;2023-04-15T13:15:01;21.50;79.50
13148;DHT22;6639;50.956;4.242;2023-04-15T13:17:31;21.70;79.10
13148;DHT22;6639;50.956;4.242;2023-04-15T13:19:59;21.90;79.40
13148;DHT22;6639;50.956;4.242;2023-04-15T13:22:26;22.40;80.70
13148;DHT22;6639;50.956;4.242;2023-04-15T13:24:53;22.40;80.30
13148;DHT22;6639;50.956;4.242;2023-04-15T13:27:21;22.60;80.50
13148;DHT22;6639;50.956;4.242;2023-04-15T13:29:47;23.00;81.70
13148;DHT22;6639;50.956;4.242;2023-04-15T13:32:16;23.30;83.60
13148;DHT22;6639;50.956;4.242;2023-04-15T13:34:42;23.30;82.80
13148;DHT22;6639;50.956;4.242;2023-04-15T13:37:11;22.80;83.20
13148;DHT22;6639;50.956;4.242;2023-04-15T13:39:38;22.80;82.40
13148;DHT22;6639;50.956;4.242;2023-04-15T13:42:05;22.60;83.10
13148;DHT22;6639;50.956;4.242;2023-04-15T13:44:36;22.20;81.50
13148;DHT22;6639;50.956;4.242;2023-04-15T13:47:07;21.90;82.90
13148;DHT22;6639;50.956;4.242;2023-04-15T13:49:35;22.00;83.20
13148;DHT22;6639;50.956;4.242;2023-04-15T13:52:06;22.40;84.50
13148;DHT22;6639;50.956;4.242;2023-04-15T13:54:35;22.90;82.50
13148;DHT22;6639;50.956;4.242;2023-04-15T13:57:02;23.10;83.50
13148;DHT22;6639;50.956;4.242;2023-04-15T13:59:31;23.30;81.70
13148;DHT22;6639;50.956;4.242;2023-04-15T14:01:58;22.90;80.60
13148;DHT22;6639;50.956;4.242;2023-04-15T14:04:31;23.20;80.90
13148;DHT22;6639;50.956;4.242;2023-04-15T14:07:10;23.00;81.80
13148;DHT22;6639;50.956;4.242;2023-04-15T14:09:38;22.90;82.30
13148;DHT22;6639;50.956;4.242;2023-04-15T14:14:41;22.70;80.60
13148;DHT22;6639;50.956;4.242;2023-04-15T14:17:08;21.80;81.00
13148;DHT22;6639;50.956;4.242;2023-04-15T14:19:35;21.70;83.30
13148;DHT22;6639;50.956;4.242;2023-04-15T14:22:03;22.00;84.10
13148;DHT22;6639;50.956;4.242;2023-04-15T14:24:30;22.50;81.90
13148;DHT22;6639;50.956;4.242;2023-04-15T14:26:59;23.00;83.50
13148;DHT22;6639;50.956;4.242;2023-04-15T14:29:27;23.20;83.90
13148;DHT22;6639;50.956;4.242;2023-04-15T14:31:54;23.20;84.70
13148;DHT22;6639;50.956;4.242;2023-04-15T14:34:23;23.50;83.70
13148;DHT22;6639;50.956;4.242;2023-04-15T14:37:01;23.50;83.30
13148;DHT22;6639;50.956;4.242;2023-04-15T14:39:29;23.30;83.80
13148;DHT22;6639;50.956;4.242;2023-04-15T14:41:56;23.00;84.20
13148;DHT22;6639;50.956;4.242;2023-04-15T14:44:24;23.00;83.20
13148;DHT22;6639;50.956;4.242;2023-04-15T14:46:51;22.80;83.60
13148;DHT22;6639;50.956;4.242;2023-04-15T14:49:19;23.20;84.10
13148;DHT22;6639;50.956;4.242;2023-04-15T14:51:47;23.20;84.40
13148;DHT22;6639;50.956;4.242;2023-04-15T14:54:17;23.30;84.40
13148;DHT22;6639;50.956;4.242;2023-04-15T14:56:44;22.80;84.70
13148;DHT22;6639;50.956;4.242;2023-04-15T14:59:11;22.40;87.70
13148;DHT22;6639;50.956;4.242;2023-04-15T15:01:39;22.20;90.00
13148;DHT22;6639;50.956;4.242;2023-04-15T15:04:09;21.80;90.40
13148;DHT22;6639;50.956;4.242;2023-04-15T15:06:36;21.50;91.30
13148;DHT22;6639;50.956;4.242;2023-04-15T15:09:03;21.50;92.40
13148;DHT22;6639;50.956;4.242;2023-04-15T15:11:30;21.50;92.30
13148;DHT22;6639;50.956;4.242;2023-04-15T15:13:57;21.40;91.90
13148;DHT22;6639;50.956;4.242;2023-04-15T15:16:24;21.50;92.10
13148;DHT22;6639;50.956;4.242;2023-04-15T15:18:52;21.40;92.00
13148;DHT22;6639;50.956;4.242;2023-04-15T15:21:20;21.50;92.80
13148;DHT22;6639;50.956;4.242;2023-04-15T15:23:46;21.40;92.90
13148;DHT22;6639;50.956;4.242;2023-04-15T15:26:14;21.50;92.80
13148;DHT22;6639;50.956;4.242;2023-04-15T15:28:40;21.30;92.70
13148;DHT22;6639;50.956;4.242;2023-04-15T15:31:09;21.10;92.70
13148;DHT22;6639;50.956;4.242;2023-04-15T15:33:37;20.90;93.30
13148;DHT22;6639;50.956;4.242;2023-04-15T15:36:09;20.60;93.70
13148;DHT22;6639;50.956;4.242;2023-04-15T15:38:36;20.70;94.00
13148;DHT22;6639;50.956;4.242;2023-04-15T15:41:03;20.70;94.30
13148;DHT22;6639;50.956;4.242;2023-04-15T15:43:30;20.90;94.00
13148;DHT22;6639;50.956;4.242;2023-04-15T15:45:57;20.40;94.20
13148;DHT22;6639;50.956;4.242;2023-04-15T15:48:24;20.30;94.40
13148;DHT22;6639;50.956;4.242;2023-04-15T15:50:51;20.10;94.40
13148;DHT22;6639;50.956;4.242;2023-04-15T15:53:20;20.20;94.80
13148;DHT22;6639;50.956;4.242;2023-04-15T15:55:49;20.30;94.30
13148;DHT22;6639;50.956;4.242;2023-04-15T15:58:15;20.40;94.60